<?xml version="1.0" encoding="UTF-8" standalone="no" ?>
<gpx xmlns="http://www.topografix.com/GPX/1/1" xmlns:xsi="http://www.w3.org/2001/XMLSchema-instance" xsi:schemaLocation="http://www.topografix.com/GPX/1/1 http://www.topografix.com/GPX/1/1/gpx.xsd" version="1.1" creator="VisuGPX - https://www.visugpx.com">
  <metadata>
    <name>CDS j9</name>
    <desc><![CDATA[Chemin du soleil]]></desc>
  </metadata>
  <trk>
    <name><![CDATA[ACTIVE LOG180846]]></name>
    <trkseg>
      <trkpt lat="44.09186" lon="6.23325">
        <ele>600</ele>
        <time>2011-08-17T16:08:46Z</time>
      </trkpt>
      <trkpt lat="44.09186" lon="6.23326">
        <ele>600</ele>
        <time>2011-08-17T16:10:32Z</time>
      </trkpt>
      <trkpt lat="44.09194" lon="6.2332">
        <ele>600</ele>
        <time>2011-08-17T16:17:42Z</time>
      </trkpt>
      <trkpt lat="44.09193" lon="6.23318">
        <ele>600</ele>
        <time>2011-08-17T16:17:47Z</time>
      </trkpt>
      <trkpt lat="44.09194" lon="6.23305">
        <ele>600</ele>
        <time>2011-08-17T16:18:02Z</time>
      </trkpt>
      <trkpt lat="44.09174" lon="6.23286">
        <ele>600</ele>
        <time>2011-08-17T16:18:19Z</time>
      </trkpt>
      <trkpt lat="44.09168" lon="6.23265">
        <ele>599</ele>
        <time>2011-08-17T16:18:40Z</time>
      </trkpt>
      <trkpt lat="44.09166" lon="6.23258">
        <ele>599</ele>
        <time>2011-08-17T16:18:47Z</time>
      </trkpt>
      <trkpt lat="44.09161" lon="6.23245">
        <ele>598</ele>
        <time>2011-08-17T16:19:03Z</time>
      </trkpt>
      <trkpt lat="44.09165" lon="6.23244">
        <ele>598</ele>
        <time>2011-08-17T16:19:10Z</time>
      </trkpt>
      <trkpt lat="44.09163" lon="6.23242">
        <ele>598</ele>
        <time>2011-08-17T16:19:12Z</time>
      </trkpt>
      <trkpt lat="44.09152" lon="6.23222">
        <ele>597</ele>
        <time>2011-08-17T16:19:28Z</time>
      </trkpt>
      <trkpt lat="44.09149" lon="6.23212">
        <ele>597</ele>
        <time>2011-08-17T16:19:43Z</time>
      </trkpt>
      <trkpt lat="44.09142" lon="6.23196">
        <ele>597</ele>
        <time>2011-08-17T16:19:57Z</time>
      </trkpt>
      <trkpt lat="44.09122" lon="6.23178">
        <ele>596</ele>
        <time>2011-08-17T16:20:13Z</time>
      </trkpt>
      <trkpt lat="44.09107" lon="6.23176">
        <ele>596</ele>
        <time>2011-08-17T16:20:28Z</time>
      </trkpt>
      <trkpt lat="44.09102" lon="6.23176">
        <ele>596</ele>
        <time>2011-08-17T16:21:41Z</time>
      </trkpt>
      <trkpt lat="44.091" lon="6.23174">
        <ele>596</ele>
        <time>2011-08-17T16:21:43Z</time>
      </trkpt>
      <trkpt lat="44.09089" lon="6.23207">
        <ele>596</ele>
        <time>2011-08-17T16:21:52Z</time>
      </trkpt>
      <trkpt lat="44.09076" lon="6.23271">
        <ele>595</ele>
        <time>2011-08-17T16:22:06Z</time>
      </trkpt>
      <trkpt lat="44.09059" lon="6.23349">
        <ele>597</ele>
        <time>2011-08-17T16:22:23Z</time>
      </trkpt>
      <trkpt lat="44.09049" lon="6.2345">
        <ele>599</ele>
        <time>2011-08-17T16:22:43Z</time>
      </trkpt>
      <trkpt lat="44.09046" lon="6.23528">
        <ele>601</ele>
        <time>2011-08-17T16:22:59Z</time>
      </trkpt>
      <trkpt lat="44.09028" lon="6.23631">
        <ele>602</ele>
        <time>2011-08-17T16:23:20Z</time>
      </trkpt>
      <trkpt lat="44.09006" lon="6.23693">
        <ele>601</ele>
        <time>2011-08-17T16:23:34Z</time>
      </trkpt>
      <trkpt lat="44.09006" lon="6.23723">
        <ele>601</ele>
        <time>2011-08-17T16:23:40Z</time>
      </trkpt>
      <trkpt lat="44.08982" lon="6.2384">
        <ele>601</ele>
        <time>2011-08-17T16:24:03Z</time>
      </trkpt>
      <trkpt lat="44.08965" lon="6.23965">
        <ele>606</ele>
        <time>2011-08-17T16:24:27Z</time>
      </trkpt>
      <trkpt lat="44.08981" lon="6.2405">
        <ele>608</ele>
        <time>2011-08-17T16:24:44Z</time>
      </trkpt>
      <trkpt lat="44.09019" lon="6.24131">
        <ele>605</ele>
        <time>2011-08-17T16:25:02Z</time>
      </trkpt>
      <trkpt lat="44.0906" lon="6.24211">
        <ele>606</ele>
        <time>2011-08-17T16:25:20Z</time>
      </trkpt>
      <trkpt lat="44.09113" lon="6.24314">
        <ele>617</ele>
        <time>2011-08-17T16:25:43Z</time>
      </trkpt>
      <trkpt lat="44.0912" lon="6.24369">
        <ele>622</ele>
        <time>2011-08-17T16:25:56Z</time>
      </trkpt>
      <trkpt lat="44.09107" lon="6.24418">
        <ele>621</ele>
        <time>2011-08-17T16:26:13Z</time>
      </trkpt>
      <trkpt lat="44.09071" lon="6.24479">
        <ele>614</ele>
        <time>2011-08-17T16:26:31Z</time>
      </trkpt>
      <trkpt lat="44.0907" lon="6.24549">
        <ele>612</ele>
        <time>2011-08-17T16:26:44Z</time>
      </trkpt>
      <trkpt lat="44.09049" lon="6.24612">
        <ele>612</ele>
        <time>2011-08-17T16:26:57Z</time>
      </trkpt>
      <trkpt lat="44.09004" lon="6.24702">
        <ele>613</ele>
        <time>2011-08-17T16:27:18Z</time>
      </trkpt>
      <trkpt lat="44.08983" lon="6.24791">
        <ele>614</ele>
        <time>2011-08-17T16:27:37Z</time>
      </trkpt>
      <trkpt lat="44.08971" lon="6.24869">
        <ele>615</ele>
        <time>2011-08-17T16:27:54Z</time>
      </trkpt>
      <trkpt lat="44.08926" lon="6.24907">
        <ele>616</ele>
        <time>2011-08-17T16:28:10Z</time>
      </trkpt>
      <trkpt lat="44.08878" lon="6.24931">
        <ele>616</ele>
        <time>2011-08-17T16:28:27Z</time>
      </trkpt>
      <trkpt lat="44.0882" lon="6.24964">
        <ele>620</ele>
        <time>2011-08-17T16:28:46Z</time>
      </trkpt>
      <trkpt lat="44.08781" lon="6.24987">
        <ele>621</ele>
        <time>2011-08-17T16:28:59Z</time>
      </trkpt>
      <trkpt lat="44.08747" lon="6.25021">
        <ele>627</ele>
        <time>2011-08-17T16:29:14Z</time>
      </trkpt>
      <trkpt lat="44.08735" lon="6.25039">
        <ele>629</ele>
        <time>2011-08-17T16:29:20Z</time>
      </trkpt>
      <trkpt lat="44.08727" lon="6.25043">
        <ele>630</ele>
        <time>2011-08-17T16:29:30Z</time>
      </trkpt>
      <trkpt lat="44.08726" lon="6.25042">
        <ele>629</ele>
        <time>2011-08-17T16:29:32Z</time>
      </trkpt>
      <trkpt lat="44.08724" lon="6.25034">
        <ele>629</ele>
        <time>2011-08-17T16:29:35Z</time>
      </trkpt>
      <trkpt lat="44.08698" lon="6.25014">
        <ele>627</ele>
        <time>2011-08-17T16:29:47Z</time>
      </trkpt>
      <trkpt lat="44.08662" lon="6.25005">
        <ele>624</ele>
        <time>2011-08-17T16:29:59Z</time>
      </trkpt>
      <trkpt lat="44.08617" lon="6.24997">
        <ele>625</ele>
        <time>2011-08-17T16:30:14Z</time>
      </trkpt>
      <trkpt lat="44.08572" lon="6.24997">
        <ele>629</ele>
        <time>2011-08-17T16:30:30Z</time>
      </trkpt>
      <trkpt lat="44.08545" lon="6.25009">
        <ele>627</ele>
        <time>2011-08-17T16:30:39Z</time>
      </trkpt>
      <trkpt lat="44.08517" lon="6.25039">
        <ele>627</ele>
        <time>2011-08-17T16:30:52Z</time>
      </trkpt>
      <trkpt lat="44.08478" lon="6.25093">
        <ele>629</ele>
        <time>2011-08-17T16:31:08Z</time>
      </trkpt>
      <trkpt lat="44.08456" lon="6.2516">
        <ele>630</ele>
        <time>2011-08-17T16:31:24Z</time>
      </trkpt>
      <trkpt lat="44.08454" lon="6.25187">
        <ele>631</ele>
        <time>2011-08-17T16:31:31Z</time>
      </trkpt>
      <trkpt lat="44.08453" lon="6.25247">
        <ele>633</ele>
        <time>2011-08-17T16:31:45Z</time>
      </trkpt>
      <trkpt lat="44.08459" lon="6.2528">
        <ele>648</ele>
        <time>2011-08-17T16:31:55Z</time>
      </trkpt>
      <trkpt lat="44.08459" lon="6.25283">
        <ele>648</ele>
        <time>2011-08-17T16:31:56Z</time>
      </trkpt>
      <trkpt lat="44.08451" lon="6.25286">
        <ele>648</ele>
        <time>2011-08-17T16:32:00Z</time>
      </trkpt>
      <trkpt lat="44.08426" lon="6.25274">
        <ele>643</ele>
        <time>2011-08-17T16:32:10Z</time>
      </trkpt>
      <trkpt lat="44.08409" lon="6.2528">
        <ele>637</ele>
        <time>2011-08-17T16:32:15Z</time>
      </trkpt>
      <trkpt lat="44.08347" lon="6.25342">
        <ele>642</ele>
        <time>2011-08-17T16:32:35Z</time>
      </trkpt>
      <trkpt lat="44.08318" lon="6.2537">
        <ele>639</ele>
        <time>2011-08-17T16:32:45Z</time>
      </trkpt>
      <trkpt lat="44.08278" lon="6.25424">
        <ele>643</ele>
        <time>2011-08-17T16:33:01Z</time>
      </trkpt>
      <trkpt lat="44.08239" lon="6.25448">
        <ele>640</ele>
        <time>2011-08-17T16:33:14Z</time>
      </trkpt>
      <trkpt lat="44.08204" lon="6.25469">
        <ele>641</ele>
        <time>2011-08-17T16:33:24Z</time>
      </trkpt>
      <trkpt lat="44.08196" lon="6.25504">
        <ele>641</ele>
        <time>2011-08-17T16:33:34Z</time>
      </trkpt>
      <trkpt lat="44.08186" lon="6.25503">
        <ele>641</ele>
        <time>2011-08-17T16:33:40Z</time>
      </trkpt>
      <trkpt lat="44.08143" lon="6.25463">
        <ele>652</ele>
        <time>2011-08-17T16:33:57Z</time>
      </trkpt>
      <trkpt lat="44.08122" lon="6.25479">
        <ele>654</ele>
        <time>2011-08-17T16:34:05Z</time>
      </trkpt>
      <trkpt lat="44.08115" lon="6.25492">
        <ele>655</ele>
        <time>2011-08-17T16:34:09Z</time>
      </trkpt>
      <trkpt lat="44.08089" lon="6.25538">
        <ele>648</ele>
        <time>2011-08-17T16:34:24Z</time>
      </trkpt>
      <trkpt lat="44.08071" lon="6.25556">
        <ele>664</ele>
        <time>2011-08-17T16:34:34Z</time>
      </trkpt>
      <trkpt lat="44.08056" lon="6.25591">
        <ele>655</ele>
        <time>2011-08-17T16:34:46Z</time>
      </trkpt>
      <trkpt lat="44.08034" lon="6.25629">
        <ele>659</ele>
        <time>2011-08-17T16:34:58Z</time>
      </trkpt>
      <trkpt lat="44.08016" lon="6.25665">
        <ele>660</ele>
        <time>2011-08-17T16:35:08Z</time>
      </trkpt>
      <trkpt lat="44.08009" lon="6.25699">
        <ele>654</ele>
        <time>2011-08-17T16:35:16Z</time>
      </trkpt>
      <trkpt lat="44.07995" lon="6.25742">
        <ele>662</ele>
        <time>2011-08-17T16:35:28Z</time>
      </trkpt>
      <trkpt lat="44.07977" lon="6.25785">
        <ele>667</ele>
        <time>2011-08-17T16:35:40Z</time>
      </trkpt>
      <trkpt lat="44.0796" lon="6.25815">
        <ele>670</ele>
        <time>2011-08-17T16:35:48Z</time>
      </trkpt>
      <trkpt lat="44.07958" lon="6.25828">
        <ele>670</ele>
        <time>2011-08-17T16:35:52Z</time>
      </trkpt>
      <trkpt lat="44.07956" lon="6.25837">
        <ele>667</ele>
        <time>2011-08-17T16:35:55Z</time>
      </trkpt>
      <trkpt lat="44.07954" lon="6.25845">
        <ele>668</ele>
        <time>2011-08-17T16:35:57Z</time>
      </trkpt>
      <trkpt lat="44.07943" lon="6.25863">
        <ele>670</ele>
        <time>2011-08-17T16:36:01Z</time>
      </trkpt>
      <trkpt lat="44.07948" lon="6.25875">
        <ele>668</ele>
        <time>2011-08-17T16:36:07Z</time>
      </trkpt>
      <trkpt lat="44.0796" lon="6.25879">
        <ele>666</ele>
        <time>2011-08-17T16:36:10Z</time>
      </trkpt>
      <trkpt lat="44.07976" lon="6.25896">
        <ele>662</ele>
        <time>2011-08-17T16:36:17Z</time>
      </trkpt>
      <trkpt lat="44.07985" lon="6.25915">
        <ele>658</ele>
        <time>2011-08-17T16:36:23Z</time>
      </trkpt>
      <trkpt lat="44.08001" lon="6.25956">
        <ele>661</ele>
        <time>2011-08-17T16:36:37Z</time>
      </trkpt>
      <trkpt lat="44.07982" lon="6.2599">
        <ele>656</ele>
        <time>2011-08-17T16:36:48Z</time>
      </trkpt>
      <trkpt lat="44.07977" lon="6.26014">
        <ele>655</ele>
        <time>2011-08-17T16:37:00Z</time>
      </trkpt>
      <trkpt lat="44.07977" lon="6.26012">
        <ele>655</ele>
        <time>2011-08-17T16:37:20Z</time>
      </trkpt>
      <trkpt lat="44.07977" lon="6.26007">
        <ele>655</ele>
        <time>2011-08-17T16:37:24Z</time>
      </trkpt>
    </trkseg>
  </trk>
</gpx>